Airfield :
LOGIN :

Register | Disclaimer

   EN    FR    IT 

 










Legend :    VFR   Marginal VFR   IFR   Intensive IFR   Very Intensive IFR
Visi :
Ceiling :
>= 8 km
>= 3000ft
5 to 8 km
1000 to 3000 ft
1500m to 5 km
500 to 1000 ft
800 to 1500m
200 to 500 ft
< 800m
< 200 ft
Symbols :   Thunderstorms  Fog  Heavy snow  Heavy precipitations  Wind > 20 kt
SIGMETs :     Misc.  Thunderstorms  Icing  Turbulence  Mountain Waves  Volcanic Ashes







- Airport Elevation : 184 ft
- IATA code : BRU


EBBR - Bruxelles

CURRENT METAR :
  • 200920Z 03003KT 310V090 6000 FEW008 14/10 Q1023 NOSIG

EXPIRED METARs :
  • 200850Z 05003KT 350V080 6000 FEW005 SCT008 12/10 Q1023 NOSIG
  • 200820Z VRB02KT 4500 BR FEW004 SCT006 11/09 Q1023 BECMG 6000 NSW SCT010
  • 200750Z VRB01KT 2500 BR SCT004 BKN006 10/09 Q1023 BECMG 4000 BR BKN009
  • 200720Z 12004KT 1800 BR BKN003 09/08 Q1023 BECMG 3000 BR
  • 200650Z 09004KT 060V120 1100 R25L/1300U R25R/1700U R01/1300U BR OVC003 09/07 Q1023 BECMG 2500 BR

TAF TAF EBBR
Valid from the 20 at 06:00 until the 21 at 12:00 UTC


200510Z 2006/2112 03004KT 0400 FG BKN001
BECMG 2007/2009 9999 NSW FEW040
PROB40
TEMPO 2018/2020 VRB20G30KT 3000 SHRA TSRA
No reported NOTAMs for that airfield.



MET'MAP, your aeronautical weather chart ! - Copyright ORBIFLY December 2007 - Disclaimer

ORBIFLY MET'MAP TEAM :

Programming & Development : Alexandra Zaïnal
Concept & Development : Baudouin d'Aumeries
Co-Development & Prog : Marc-Olivier Méhu
Technical & hardware support : Manuel Goepfert

Contact : metmap@orbifly.com




SOURCES & CREDITS :

   NOAA